CheckWX is a tool to help pilots better visualize weather data.  It is not intended as a substitute for an official pre-flight weather briefing.

06:08:10 UTC

KAPG METAR
Phillips AAF Airport
Aberdeen Proving Grounds(Aberdeen), Maryland, USA
Current

6 hours ago

KAPG 222345Z 00000KT 7SM FEW040 SCT150 19/09 A3004 RMK SLPNO 50007 $
Observed
Apr-22 @ 23:45 UTC
Visibility
7 SM
Flight Rules
VFR
Cloud Levels
  • Few at 4,000' AGL
  • Scattered at 15,000' AGL
Temperature
19°C / 66°F
Dewpoint
C / 48°F
Humidity
52%
Altimeter
30.04" Hg
Pressure
1017.32 hPa
Previous

7 hours ago

KAPG 222255Z VRB05KT 7SM SCT040 SCT150 19/09 A3004 RMK SLPNO $
Observed
Apr-22 @ 22:55 UTC
Wind
  • Variable at 5 KTS
Visibility
7 SM
Flight Rules
VFR
Cloud Levels
  • Scattered at 4,000' AGL
  • Scattered at 15,000' AGL
Temperature
19°C / 66°F
Dewpoint
C / 48°F
Humidity
52%
Altimeter
30.04" Hg
Pressure
1017.32 hPa
Previous

8 hours ago

KAPG 222155Z VRB06KT 7SM SCT040 BKN150 21/10 A3004
Observed
Apr-22 @ 21:55 UTC
Wind
  • Variable at 6 KTS
Visibility
7 SM
Flight Rules
VFR
Cloud Levels
  • Scattered at 4,000' AGL
  • Broken at 15,000' AGL
Temperature
21°C / 70°F
Dewpoint
10°C / 50°F
Humidity
50%
Altimeter
30.04" Hg
Pressure
1017.32 hPa